This is the latest recevied weather packets stored in our database for station/object VA3XLC. If no packets are shown the sender has not sent any weather packets the latest 10 day(s).
| Time | Temp. | Humidity | Pressure | Rain* | Wind** | Luminosity | Snow |
|---|---|---|---|---|---|---|---|
| 1777614501 | 0.56° C | 83% | 981.2 hPa | - | - | 0 W/m² | - |
| 1777611497 | 0° C | 83% | 981.3 hPa | - | - | 0 W/m² | - |
| 1777610596 | 0.56° C | 81% | 981.5 hPa | - | - | 0 W/m² | - |
| 1777609373 | 0.56° C | 80% | 981.4 hPa | - | - | 0 W/m² | - |
| 1777609073 | 1.11° C | 79% | 981.4 hPa | - | - | 0 W/m² | - |
| 1777604547 | 1.67° C | 76% | 981.7 hPa | - | - | 0 W/m² | - |
| 1777604247 | 2.22° C | 75% | 981.8 hPa | - | - | 0 W/m² | - |
| 1777600623 | 3.89° C | 68% | 981.7 hPa | - | - | 0 W/m² | - |
| 1777596676 | 5.56° C | 58% | 981.3 hPa | - | - | 0 W/m² | - |
| 1777590224 | 7.22° C | 52% | 980.7 hPa | - | - | 80 W/m² | - |
| 1777587500 | 7.78° C | 48% | 980.5 hPa | - | - | 173 W/m² | - |
| 1777586599 | 7.78° C | 48% | 980.5 hPa | - | - | 235 W/m² | - |
| 1777585076 | 7.78° C | 48% | 980.4 hPa | - | - | 143 W/m² | - |
| 1777584153 | 7.78° C | 48% | 980.3 hPa | - | - | 132 W/m² | - |
| 1777580205 | 9.44° C | 46% | 979.8 hPa | - | - | 348 W/m² | - |
| 1777579004 | 9.44° C | 46% | 979.6 hPa | - | - | 420 W/m² | - |
| 1777575638 | 8.33° C | 65% | 979.9 hPa | - | - | 311 W/m² | - |
| 1777574137 | 8.33° C | 65% | 980.1 hPa | - | - | 169 W/m² | - |
| 1777573837 | 8.33° C | 66% | 980.2 hPa | - | - | 165 W/m² | - |
| 1777570512 | 8.33° C | 63% | 980.1 hPa | - | - | 247 W/m² | - |
| 1777569911 | 8.33° C | 66% | 980.1 hPa | - | - | 287 W/m² | - |
| 1777569310 | 8.33° C | 67% | 980.2 hPa | - | - | 255 W/m² | - |
| 1777568089 | 8.33° C | 62% | 980.2 hPa | - | - | 343 W/m² | - |
| 1777567146 | 8.33° C | 63% | 980.2 hPa | - | - | 1112 W/m² | - |
| 1777565023 | 7.78° C | 67% | 980.3 hPa | - | - | 345 W/m² | - |
* Rain since midnight (hover to see other rain measurements)
** Current wind speed in m/s (hover to see current wind gust speed)